ADDS METAR Data

Data at: 0506 UTC 20 Apr 2018

METAR for:KPVD (Providence/Green Mem, RI, US)
Text:KPVD 200451Z 31013G19KT 10SM OVC070 04/M01 A2988 RMK AO2 SLP120 T00391006 400780039
Temperature: 3.9°C ( 39°F)
Dewpoint: -0.6°C ( 31°F) [RH = 72%]
Pressure (altimeter):29.88 inches Hg (1011.9 mb) [Sea level pressure: 1012.0 mb]
Winds:from the NW (310 degrees) at 15 MPH (13 knots; 6.7 m/s) gusting to 22 MPH (19 knots; 9.8 m/s)
Visibility:10 or more sm (16+ km)
Ceiling:7000 feet AGL
Clouds: overcast cloud deck at 7000 feet AGL